KCHA/CHA METAR and TAF weather

Enter ICAO airport designator
Station Type Date Time Source
KCHA METAR 2021/07/28 02:53 UTC NOAA

KCHA 280253Z 35003KT 10SM BKN250 27/23 A3001 RMK AO2 SLP154 T02720228 51014


Station Type Date Time Source
KCHA Decoded METAR 2021/07/28 02:53 UTC NOAA

LOVELL FIELD, TN, United States (KCHA) 35-02N 085-12W 210M
Jul 27, 2021 - 10:53 PM EDT / 2021.07.28 0253 UTC
Wind: from the N (350 degrees) at 3 MPH (3 KT):0
Visibility: 10 mile(s):0
Sky conditions: mostly cloudy
Temperature: 81.0 F (27.2 C)
Dew Point: 73.0 F (22.8 C)
Relative Humidity: 76%
Pressure (altimeter): 30.01 in. Hg (1016 hPa)
Pressure tendency: 0.04 inches (1.4 hPa) higher than three hours ago
ob: KCHA 280253Z 35003KT 10SM BKN250 27/23 A3001 RMK AO2 SLP154 T02720228 51014
cycle: 3

Station Type Date Time Source
KCHA TAF 2021/07/27 18:27 UTC NOAA

TAF KCHA 271725Z 2718/2818 00000KT P6SM VCTS SCT040CB
FM272300 36004KT P6SM SCT250
FM281700 03005KT P6SM SKC

Example: see airport list